Time;durP1;ratioP1;P1;durP2;ratioP2;P2;SDS_P1;SDS_P2;PMS_P1;PMS_P2;Temp;Humidity;BMP_temperature;BMP_pressure;BME280_temperature;BME280_humidity;BME280_pressure;Samples;Min_cycle;Max_cycle;Signal;HPM_P1;HPM_P2
2024/04/12 00:01:41;;;;;;;;;12.75;11.00;;;;;;;;5448132;26;10945;-75
2024/04/12 00:04:10;;;;;;;;;8.00;8.00;;;;;;;;5447374;26;11548;-75
2024/04/12 00:06:37;;;;;;;;;12.25;10.75;;;;;;;;5446665;26;11131;-76
2024/04/12 00:09:09;;;;;;;;;10.00;10.00;;;;;;;;5416155;26;11250;-75
2024/04/12 00:11:34;;;;;;;;;13.25;11.00;;;;;;;;5447957;26;11085;-75
2024/04/12 00:14:01;;;;;;;;;10.00;9.00;;;;;;;;5448160;26;11742;-77
2024/04/12 00:16:26;;;;;;;;;9.00;9.00;;;;;;;;5415579;26;8833;-79
2024/04/12 00:19:07;;;;;;;;;11.00;9.25;;;;;;;;5447577;26;10910;-79
2024/04/12 00:21:41;;;;;;;;;14.00;9.50;;;;;;;;5448403;26;9046;-78
2024/04/12 00:24:12;;;;;;;;;11.75;10.75;;;;;;;;5415450;26;10824;-77
2024/04/12 00:26:45;;;;;;;;;9.00;9.00;;;;;;;;5447513;26;11611;-77
2024/04/12 00:29:26;;;;;;;;;10.00;10.00;;;;;;;;5448158;26;11212;-76
2024/04/12 00:31:54;;;;;;;;;8.75;8.75;;;;;;;;5447548;26;10989;-77
2024/04/12 00:34:26;;;;;;;;;9.25;9.25;;;;;;;;5447577;26;11932;-78
2024/04/12 00:36:52;;;;;;;;;10.00;9.50;;;;;;;;5447899;26;11384;-78
2024/04/12 00:39:35;;;;;;;;;9.75;9.50;;;;;;;;5447927;26;11104;-76
2024/04/12 00:42:01;;;;;;;;;11.00;11.00;;;;;;;;5447846;26;8826;-77
2024/04/12 00:44:29;;;;;;;;;10.50;10.00;;;;;;;;5415447;26;11189;-78
2024/04/12 00:46:55;;;;;;;;;10.00;10.00;;;;;;;;5447824;26;9081;-77
2024/04/12 00:49:30;;;;;;;;;9.25;9.25;;;;;;;;5416246;26;11274;-78
2024/04/12 00:52:02;;;;;;;;;13.25;10.00;;;;;;;;5449793;26;11546;-78
2024/04/12 00:54:29;;;;;;;;;8.50;6.75;;;;;;;;5447901;26;11147;-77
2024/04/12 00:56:56;;;;;;;;;9.25;9.25;;;;;;;;5447133;26;11174;-76
2024/04/12 00:59:24;;;;;;;;;11.25;9.75;;;;;;;;5447297;26;11274;-77
2024/04/12 01:01:50;;;;;;;;;11.25;10.00;;;;;;;;5447067;26;11165;-76
2024/04/12 01:04:19;;;;;;;;;9.25;9.25;;;;;;;;5446679;26;11154;-77
2024/04/12 01:06:45;;;;;;;;;11.25;9.00;;;;;;;;5446896;26;11290;-78
2024/04/12 01:09:13;;;;;;;;;9.00;9.00;;;;;;;;5446884;26;11850;-78
2024/04/12 01:11:39;;;;;;;;;10.25;10.25;;;;;;;;5446604;26;8945;-78
2024/04/12 01:14:10;;;;;;;;;9.50;9.50;;;;;;;;5446624;26;11282;-78
2024/04/12 01:16:38;;;;;;;;;8.75;8.75;;;;;;;;5447489;26;8798;-78
2024/04/12 01:19:04;;;;;;;;;11.25;10.25;;;;;;;;5414758;26;11346;-76
2024/04/12 01:21:31;;;;;;;;;8.00;8.00;;;;;;;;5446661;26;11420;-77
2024/04/12 01:23:57;;;;;;;;;9.25;9.00;;;;;;;;5414181;26;8822;-78
2024/04/12 01:26:23;;;;;;;;;11.50;9.00;;;;;;;;5446285;26;11126;-77
2024/04/12 01:28:49;;;;;;;;;11.50;11.50;;;;;;;;5446421;26;9567;-75
2024/04/12 01:31:17;;;;;;;;;13.25;9.00;;;;;;;;5415180;26;11192;-76
2024/04/12 01:33:50;;;;;;;;;10.50;10.50;;;;;;;;5447008;26;9582;-76
2024/04/12 01:36:17;;;;;;;;;13.00;11.25;;;;;;;;5415422;26;11211;-77
2024/04/12 01:38:53;;;;;;;;;11.75;11.00;;;;;;;;5411849;26;12202;-77
2024/04/12 01:41:21;;;;;;;;;14.25;9.75;;;;;;;;5412680;26;11539;-78
2024/04/12 01:43:52;;;;;;;;;9.00;8.00;;;;;;;;5414245;26;11275;-77
2024/04/12 01:46:17;;;;;;;;;9.25;9.25;;;;;;;;5414449;26;11170;-78
2024/04/12 01:48:43;;;;;;;;;13.50;10.75;;;;;;;;5414455;26;11136;-79
2024/04/12 01:51:13;;;;;;;;;10.50;9.00;;;;;;;;5415020;26;9049;-77
2024/04/12 01:53:40;;;;;;;;;8.50;8.50;;;;;;;;5414130;26;12158;-77
2024/04/12 01:56:05;;;;;;;;;10.25;10.25;;;;;;;;5414035;26;11257;-79
2024/04/12 01:58:34;;;;;;;;;13.75;10.75;;;;;;;;5414150;26;11274;-78
2024/04/12 02:01:02;;;;;;;;;12.25;10.75;;;;;;;;5382170;26;8837;-78
2024/04/12 02:03:30;;;;;;;;;10.00;9.00;;;;;;;;5381934;26;11471;-79
2024/04/12 02:05:56;;;;;;;;;12.25;10.50;;;;;;;;5414071;26;11941;-79
2024/04/12 02:08:23;;;;;;;;;12.00;9.75;;;;;;;;5443197;26;11426;-79
2024/04/12 02:10:49;;;;;;;;;10.25;9.25;;;;;;;;5449169;26;8899;-78
2024/04/12 02:13:17;;;;;;;;;11.25;8.75;;;;;;;;5449426;26;11462;-78
2024/04/12 02:15:52;;;;;;;;;12.50;10.50;;;;;;;;5449727;26;8868;-79
2024/04/12 02:18:21;;;;;;;;;13.50;11.75;;;;;;;;5449630;26;11414;-78
2024/04/12 02:20:51;;;;;;;;;11.75;11.75;;;;;;;;5449725;26;11525;-77
2024/04/12 02:23:19;;;;;;;;;9.00;9.00;;;;;;;;5449038;26;11431;-78
2024/04/12 02:25:44;;;;;;;;;10.00;10.00;;;;;;;;5418360;26;11395;-79
2024/04/12 02:28:11;;;;;;;;;9.00;8.75;;;;;;;;5449465;26;11553;-78
2024/04/12 02:30:41;;;;;;;;;9.00;9.00;;;;;;;;5417372;26;9571;-78
2024/04/12 21:55:45;;;;;;;;;24.25;24.00;;;;;;;;5462032;26;13179;-71
2024/04/12 21:58:10;;;;;;;;;23.50;23.50;;;;;;;;5321615;26;11421;-71
2024/04/12 22:00:38;;;;;;;;;24.00;20.00;;;;;;;;5356292;26;11782;-71
2024/04/12 22:03:03;;;;;;;;;22.50;22.50;;;;;;;;5356948;26;8850;-71
2024/04/12 22:05:28;;;;;;;;;21.75;20.00;;;;;;;;5356979;26;11112;-71
2024/04/12 22:07:56;;;;;;;;;21.50;21.50;;;;;;;;5358211;26;8858;-71
2024/04/12 22:10:21;;;;;;;;;24.00;20.75;;;;;;;;5358189;26;8971;-72
2024/04/12 22:12:46;;;;;;;;;25.25;23.75;;;;;;;;5358156;26;10929;-71
2024/04/12 22:15:11;;;;;;;;;20.00;19.75;;;;;;;;5359582;26;8941;-72
2024/04/12 22:17:37;;;;;;;;;22.25;22.25;;;;;;;;5358171;26;8866;-71
2024/04/12 22:20:11;;;;;;;;;23.25;21.50;;;;;;;;5359928;26;8937;-71
2024/04/12 22:22:36;;;;;;;;;22.75;20.00;;;;;;;;5357906;26;11683;-71
2024/04/12 22:25:02;;;;;;;;;22.50;21.00;;;;;;;;5360166;26;11144;-72
2024/04/12 22:27:27;;;;;;;;;23.25;22.50;;;;;;;;5359839;26;8865;-71
2024/04/12 22:29:52;;;;;;;;;25.25;20.75;;;;;;;;5359626;26;8874;-71
2024/04/12 22:32:18;;;;;;;;;24.00;20.00;;;;;;;;5359698;26;8854;-71
2024/04/12 22:34:43;;;;;;;;;21.50;21.50;;;;;;;;5358819;26;8972;-71
2024/04/12 22:37:09;;;;;;;;;23.00;19.25;;;;;;;;5360020;26;9019;-71
2024/04/12 22:39:34;;;;;;;;;20.25;20.00;;;;;;;;5359971;26;8922;-71
2024/04/12 22:41:59;;;;;;;;;21.25;19.25;;;;;;;;5360354;26;11300;-71
2024/04/12 22:44:25;;;;;;;;;23.75;20.25;;;;;;;;5360130;26;9011;-71
2024/04/12 22:46:50;;;;;;;;;22.50;21.25;;;;;;;;5360025;26;8886;-71
2024/04/12 22:49:15;;;;;;;;;22.00;20.00;;;;;;;;5357683;26;8826;-71
2024/04/12 22:51:40;;;;;;;;;24.00;23.50;;;;;;;;5359520;26;9008;-71
2024/04/12 22:54:05;;;;;;;;;22.75;22.75;;;;;;;;5359317;26;9118;-70
2024/04/12 22:56:49;;;;;;;;;18.75;17.25;;;;;;;;5359426;26;9598;-70
2024/04/12 22:59:15;;;;;;;;;23.75;19.00;;;;;;;;5357434;26;9604;-70
2024/04/12 23:01:40;;;;;;;;;28.50;24.25;;;;;;;;5359368;26;11315;-70
2024/04/12 23:04:05;;;;;;;;;19.25;18.00;;;;;;;;5359028;21;8933;-71
2024/04/12 23:06:30;;;;;;;;;25.50;20.50;;;;;;;;5311945;27;8843;-72
2024/04/12 23:08:56;;;;;;;;;19.50;19.50;;;;;;;;5277840;27;8914;-72
2024/04/12 23:11:21;;;;;;;;;19.25;19.25;;;;;;;;5307485;27;8835;-73
2024/04/12 23:13:46;;;;;;;;;19.75;18.25;;;;;;;;5308208;27;8859;-73
2024/04/12 23:16:12;;;;;;;;;20.00;18.50;;;;;;;;5277912;27;8819;-73
2024/04/12 23:18:38;;;;;;;;;22.75;21.75;;;;;;;;5308126;27;8827;-72
2024/04/12 23:21:05;;;;;;;;;21.75;20.00;;;;;;;;5307836;27;11385;-72
2024/04/12 23:23:30;;;;;;;;;22.00;21.75;;;;;;;;5308437;27;9473;-72
2024/04/12 23:25:55;;;;;;;;;21.00;18.00;;;;;;;;5308489;27;11216;-73
2024/04/12 23:28:21;;;;;;;;;19.75;18.75;;;;;;;;5277990;27;8831;-72
2024/04/12 23:30:46;;;;;;;;;18.00;17.00;;;;;;;;5278879;27;8855;-73
2024/04/12 23:33:12;;;;;;;;;23.50;22.00;;;;;;;;5308439;27;8854;-72
2024/04/12 23:35:37;;;;;;;;;22.50;22.00;;;;;;;;5308187;27;8850;-72
2024/04/12 23:38:02;;;;;;;;;22.25;19.00;;;;;;;;5307636;27;8928;-71
2024/04/12 23:40:28;;;;;;;;;22.25;19.25;;;;;;;;5308219;27;9096;-71
2024/04/12 23:42:53;;;;;;;;;21.00;18.25;;;;;;;;5308004;27;8831;-72
2024/04/12 23:45:18;;;;;;;;;20.75;17.00;;;;;;;;5307981;27;8854;-72
2024/04/12 23:47:43;;;;;;;;;16.75;16.75;;;;;;;;5307739;27;9160;-73
2024/04/12 23:50:10;;;;;;;;;22.00;19.75;;;;;;;;5307497;27;8862;-72
2024/04/12 23:52:35;;;;;;;;;19.00;19.00;;;;;;;;5307457;27;8851;-72
2024/04/12 23:55:01;;;;;;;;;22.75;21.25;;;;;;;;5307536;27;11294;-72
2024/04/12 23:57:26;;;;;;;;;23.25;21.00;;;;;;;;5307488;27;9635;-72
2024/04/12 23:59:52;;;;;;;;;18.25;17.25;;;;;;;;5307574;27;8831;-72
